createdAt,value
2019-05-23T00:00:06.575Z,1013.44
2019-05-23T00:00:58.956Z,1013.45
2019-05-23T00:01:25.046Z,1013.45
2019-05-23T00:02:17.378Z,1013.44
2019-05-23T00:03:09.671Z,1013.46
2019-05-23T00:03:35.806Z,1013.48
2019-05-23T00:04:28.148Z,1013.45
2019-05-23T00:05:46.730Z,1013.46
2019-05-23T00:06:39.030Z,1013.46
2019-05-23T00:07:05.184Z,1013.49
2019-05-23T00:07:57.493Z,1013.49
2019-05-23T00:09:15.969Z,1013.48
2019-05-23T00:10:08.284Z,1013.54
2019-05-23T00:10:34.444Z,1013.51
2019-05-23T00:11:26.735Z,1013.57
2019-05-23T00:12:46.151Z,1013.51
2019-05-23T00:13:38.475Z,1013.54
2019-05-23T00:14:04.632Z,1013.59
2019-05-23T00:14:56.972Z,1013.57
2019-05-23T00:15:49.292Z,1013.58
2019-05-23T00:16:15.435Z,1013.59
2019-05-23T00:17:07.724Z,1013.59
2019-05-23T00:18:26.297Z,1013.55
2019-05-23T00:19:18.616Z,1013.56
2019-05-23T00:19:44.776Z,1013.56
2019-05-23T00:20:37.083Z,1013.55
2019-05-23T00:21:29.390Z,1013.56
2019-05-23T00:21:55.523Z,1013.54
2019-05-23T00:22:47.834Z,1013.57
2019-05-23T00:24:06.323Z,1013.57
2019-05-23T00:24:58.634Z,1013.55
2019-05-23T00:25:24.800Z,1013.57
2019-05-23T00:26:17.123Z,1013.55
2019-05-23T00:27:09.419Z,1013.55
2019-05-23T00:27:35.546Z,1013.52
2019-05-23T00:28:27.836Z,1013.54
2019-05-23T00:29:49.287Z,1013.54
2019-05-23T00:30:15.418Z,1013.54
2019-05-23T00:31:07.705Z,1013.55
2019-05-23T00:32:26.200Z,1013.51
2019-05-23T00:33:18.504Z,1013.53
2019-05-23T00:33:44.661Z,1013.57
2019-05-23T00:34:36.947Z,1013.55
2019-05-23T00:35:29.356Z,1013.54
2019-05-23T00:35:55.492Z,1013.52
2019-05-23T00:36:47.812Z,1013.54
2019-05-23T00:38:06.262Z,1013.55
2019-05-23T00:38:58.581Z,1013.52
2019-05-23T00:39:24.794Z,1013.54
2019-05-23T00:40:17.113Z,1013.55
2019-05-23T00:41:09.415Z,1013.51
2019-05-23T00:41:35.575Z,1013.5
2019-05-23T00:42:27.859Z,1013.49
2019-05-23T00:43:46.324Z,1013.51
2019-05-23T00:44:12.575Z,1013.52
2019-05-23T00:44:38.720Z,1013.54
2019-05-23T00:45:30.969Z,1013.52
2019-05-23T00:46:49.425Z,1013.55
2019-05-23T00:47:41.733Z,1013.54
2019-05-23T00:48:07.906Z,1013.53
2019-05-23T00:49:00.254Z,1013.51
2019-05-23T00:50:18.717Z,1013.5
2019-05-23T00:51:12.062Z,1013.53
2019-05-23T00:51:38.196Z,1013.5
2019-05-23T00:52:30.486Z,1013.5
2019-05-23T00:53:48.981Z,1013.49
2019-05-23T00:54:41.318Z,1013.53
2019-05-23T00:55:07.483Z,1013.49
2019-05-23T00:55:59.753Z,1013.46
2019-05-23T00:56:52.076Z,1013.52
2019-05-23T00:57:18.258Z,1013.52
2019-05-23T00:58:10.573Z,1013.5
2019-05-23T00:59:30.061Z,1013.5
2019-05-23T01:00:22.371Z,1013.51
2019-05-23T01:00:48.556Z,1013.54
2019-05-23T01:01:40.839Z,1013.56
2019-05-23T01:02:59.293Z,1013.51
2019-05-23T01:03:51.606Z,1013.51
2019-05-23T01:04:17.779Z,1013.52
2019-05-23T01:05:10.118Z,1013.52
2019-05-23T01:06:02.433Z,1013.52
2019-05-23T01:06:28.576Z,1013.52
2019-05-23T01:07:20.863Z,1013.51
2019-05-23T01:08:39.310Z,1013.51
2019-05-23T01:09:31.633Z,1013.46
2019-05-23T01:09:57.791Z,1013.55
2019-05-23T01:10:50.182Z,1013.53
2019-05-23T01:11:42.462Z,1013.53
2019-05-23T01:12:08.634Z,1013.53
2019-05-23T01:13:00.974Z,1013.54
2019-05-23T01:14:19.400Z,1013.54
2019-05-23T01:15:11.726Z,1013.49
2019-05-23T01:15:37.869Z,1013.54
2019-05-23T01:16:30.168Z,1013.52
2019-05-23T01:17:48.663Z,1013.55
2019-05-23T01:18:40.958Z,1013.5
2019-05-23T01:19:59.480Z,1013.5
2019-05-23T01:20:51.764Z,1013.53
2019-05-23T01:21:17.920Z,1013.51
2019-05-23T01:22:10.256Z,1013.57
2019-05-23T01:23:28.765Z,1013.55
2019-05-23T01:24:21.125Z,1013.55
2019-05-23T01:24:47.296Z,1013.58
2019-05-23T01:25:39.626Z,1013.57
2019-05-23T01:26:31.909Z,1013.55
2019-05-23T01:26:58.057Z,1013.56
2019-05-23T01:27:50.343Z,1013.57
2019-05-23T01:29:08.833Z,1013.53
2019-05-23T01:30:02.144Z,1013.52
2019-05-23T01:30:28.265Z,1013.51
2019-05-23T01:31:20.616Z,1013.54
2019-05-23T01:32:39.113Z,1013.52
2019-05-23T01:33:31.403Z,1013.5
2019-05-23T01:33:57.540Z,1013.49
2019-05-23T01:34:49.854Z,1013.52
2019-05-23T01:35:42.164Z,1013.53
2019-05-23T01:36:08.317Z,1013.48
2019-05-23T01:37:00.609Z,1013.5
2019-05-23T01:38:19.106Z,1013.52
2019-05-23T01:39:11.415Z,1013.51
2019-05-23T01:39:37.600Z,1013.49
2019-05-23T01:40:29.892Z,1013.52
2019-05-23T01:41:22.208Z,1013.51
2019-05-23T01:41:48.373Z,1013.47
2019-05-23T01:42:40.716Z,1013.49
2019-05-23T01:43:59.196Z,1013.44
2019-05-23T01:44:51.511Z,1013.48
2019-05-23T01:45:17.688Z,1013.45
2019-05-23T01:46:10.025Z,1013.46
2019-05-23T01:47:02.318Z,1013.46
2019-05-23T01:47:28.457Z,1013.47
2019-05-23T01:48:20.743Z,1013.49
2019-05-23T01:49:39.232Z,1013.47
2019-05-23T01:50:31.520Z,1013.49
2019-05-23T01:50:57.690Z,1013.44
2019-05-23T01:51:50.008Z,1013.5
2019-05-23T01:52:42.484Z,1013.47
2019-05-23T01:53:08.591Z,1013.44
2019-05-23T01:54:00.901Z,1013.44
2019-05-23T01:55:19.376Z,1013.46
2019-05-23T01:56:11.736Z,1013.42
2019-05-23T01:56:37.894Z,1013.43
2019-05-23T01:57:30.245Z,1013.46
2019-05-23T01:58:48.721Z,1013.49
2019-05-23T01:59:41.018Z,1013.48
2019-05-23T02:00:11.085Z,1013.48
2019-05-23T02:01:02.420Z,1013.47
2019-05-23T02:01:28.585Z,1013.45
2019-05-23T02:02:20.903Z,1013.46
2019-05-23T02:03:39.333Z,1013.46
2019-05-23T02:04:31.651Z,1013.41
2019-05-23T02:04:57.791Z,1013.42
2019-05-23T02:05:50.139Z,1013.41
2019-05-23T02:06:42.465Z,1013.42
2019-05-23T02:07:08.673Z,1013.45
2019-05-23T02:08:01.000Z,1013.41
2019-05-23T02:09:19.548Z,1013.42
2019-05-23T02:10:11.870Z,1013.41
2019-05-23T02:10:38.052Z,1013.4
2019-05-23T02:11:30.430Z,1013.38
2019-05-23T02:12:48.855Z,1013.43
2019-05-23T02:13:41.153Z,1013.42
2019-05-23T02:14:07.291Z,1013.43
2019-05-23T02:14:59.617Z,1013.46
2019-05-23T02:15:51.902Z,1013.43
2019-05-23T02:16:18.035Z,1013.42
2019-05-23T02:17:10.353Z,1013.42
2019-05-23T02:18:28.809Z,1013.45
2019-05-23T02:19:22.105Z,1013.44
2019-05-23T02:19:48.259Z,1013.46
2019-05-23T02:20:40.575Z,1013.45
2019-05-23T02:21:59.030Z,1013.41
2019-05-23T02:22:51.323Z,1013.42
2019-05-23T02:23:17.496Z,1013.41
2019-05-23T02:24:09.816Z,1013.43
2019-05-23T02:25:02.129Z,1013.39
2019-05-23T02:25:28.294Z,1013.41
2019-05-23T02:26:20.627Z,1013.39
2019-05-23T02:27:39.141Z,1013.37
2019-05-23T02:28:31.492Z,1013.36
2019-05-23T02:28:57.634Z,1013.36
2019-05-23T02:29:50.034Z,1013.36
2019-05-23T02:31:11.516Z,1013.33
2019-05-23T02:31:37.679Z,1013.33
2019-05-23T02:32:30.042Z,1013.34
2019-05-23T02:33:22.411Z,1013.3
2019-05-23T02:33:48.550Z,1013.27
2019-05-23T02:34:40.852Z,1013.23
2019-05-23T02:35:59.393Z,1013.23
2019-05-23T02:36:51.711Z,1013.18
2019-05-23T02:37:17.874Z,1013.24
2019-05-23T02:38:10.220Z,1013.22
2019-05-23T02:39:28.755Z,1013.22
2019-05-23T02:40:21.064Z,1013.19
2019-05-23T02:40:47.230Z,1013.19
2019-05-23T02:41:39.543Z,1013.2
2019-05-23T02:42:31.862Z,1013.16
2019-05-23T02:42:58.054Z,1013.19
2019-05-23T02:43:50.405Z,1013.2
2019-05-23T02:45:08.889Z,1013.16
2019-05-23T02:46:01.205Z,1013.2
2019-05-23T02:46:27.373Z,1013.17
2019-05-23T02:47:19.733Z,1013.17
2019-05-23T02:48:12.109Z,1013.22
2019-05-23T02:48:38.291Z,1013.19
2019-05-23T02:49:30.586Z,1013.17
2019-05-23T02:50:49.081Z,1013.21
2019-05-23T02:51:41.460Z,1013.2
2019-05-23T02:52:07.614Z,1013.17
2019-05-23T02:52:59.936Z,1013.22
2019-05-23T02:53:52.274Z,1013.23
2019-05-23T02:54:18.407Z,1013.21
2019-05-23T02:55:10.744Z,1013.24
2019-05-23T02:56:29.243Z,1013.21
2019-05-23T02:57:21.571Z,1013.22
2019-05-23T02:57:47.757Z,1013.23
2019-05-23T02:58:40.046Z,1013.22
2019-05-23T02:59:32.396Z,1013.21
2019-05-23T02:59:58.531Z,1013.24
2019-05-23T03:00:54.559Z,1013.25
2019-05-23T03:01:19.008Z,1013.24
2019-05-23T03:02:11.384Z,1013.23
2019-05-23T03:02:37.540Z,1013.22
2019-05-23T03:03:29.895Z,1013.2
2019-05-23T03:04:22.239Z,1013.2
2019-05-23T03:04:48.407Z,1013.19
2019-05-23T03:05:40.761Z,1013.23
2019-05-23T03:06:59.343Z,1013.21
2019-05-23T03:07:51.687Z,1013.2
2019-05-23T03:08:17.821Z,1013.19
2019-05-23T03:09:10.154Z,1013.18
2019-05-23T03:10:28.671Z,1013.19
2019-05-23T03:11:21.009Z,1013.17
2019-05-23T03:12:39.488Z,1013.21
2019-05-23T03:13:31.774Z,1013.2
2019-05-23T03:13:57.940Z,1013.16
2019-05-23T03:14:50.268Z,1013.22
2019-05-23T03:16:08.683Z,1013.18
2019-05-23T03:17:00.989Z,1013.18
2019-05-23T03:18:19.446Z,1013.17
2019-05-23T03:19:11.798Z,1013.19
2019-05-23T03:19:37.959Z,1013.18
2019-05-23T03:20:30.268Z,1013.16
2019-05-23T03:21:48.721Z,1013.15
2019-05-23T03:22:41.061Z,1013.13
2019-05-23T03:23:59.603Z,1013.12
2019-05-23T03:24:51.889Z,1013.12
2019-05-23T03:25:18.076Z,1013.13
2019-05-23T03:26:10.388Z,1013.08
2019-05-23T03:27:28.815Z,1013.14
2019-05-23T03:28:21.171Z,1013.15
2019-05-23T03:28:47.343Z,1013.15
2019-05-23T03:29:39.657Z,1013.16
2019-05-23T03:30:31.972Z,1013.14
2019-05-23T03:31:24.981Z,1013.09
2019-05-23T03:32:20.309Z,1013.13
2019-05-23T03:32:47.487Z,1013.14
2019-05-23T03:33:39.880Z,1013.1
2019-05-23T03:34:32.222Z,1013.16
2019-05-23T03:34:58.485Z,1013.15
2019-05-23T03:35:50.837Z,1013.1
2019-05-23T03:37:09.435Z,1013.1
2019-05-23T03:38:01.757Z,1013.11
2019-05-23T03:38:27.990Z,1013.16
2019-05-23T03:39:20.240Z,1013.12
2019-05-23T03:40:38.716Z,1013.15
2019-05-23T03:41:31.078Z,1013.13
2019-05-23T03:41:57.240Z,1013.09
2019-05-23T03:42:49.570Z,1013.11
2019-05-23T03:43:41.942Z,1013.11
2019-05-23T03:44:08.106Z,1013.12
2019-05-23T03:45:00.476Z,1013.11
2019-05-23T03:46:19.014Z,1013.13
2019-05-23T03:47:11.332Z,1013.12
2019-05-23T03:47:37.500Z,1013.13
2019-05-23T03:48:29.812Z,1013.16
2019-05-23T03:49:22.172Z,1013.13
2019-05-23T03:49:48.322Z,1013.1
2019-05-23T03:50:40.614Z,1013.11
2019-05-23T03:51:59.124Z,1013.1
2019-05-23T03:52:51.454Z,1013.14
2019-05-23T03:53:17.593Z,1013.16
2019-05-23T03:54:09.876Z,1013.15
2019-05-23T03:55:02.193Z,1013.13
2019-05-23T03:55:28.338Z,1013.16
2019-05-23T03:56:20.654Z,1013.14
2019-05-23T03:57:39.109Z,1013.15
2019-05-23T03:58:31.396Z,1013.15
2019-05-23T03:58:57.542Z,1013.13
2019-05-23T03:59:49.882Z,1013.11
2019-05-23T04:00:42.231Z,1013.11
2019-05-23T04:01:08.417Z,1013.14
2019-05-23T04:02:28.904Z,1013.13
2019-05-23T04:03:21.229Z,1013.13
2019-05-23T04:03:47.367Z,1013.1
2019-05-23T04:04:39.645Z,1013.14
2019-05-23T04:05:31.990Z,1013.11
2019-05-23T04:05:58.151Z,1013.08
2019-05-23T04:06:50.486Z,1013.09
2019-05-23T04:08:08.963Z,1013.08
2019-05-23T04:09:01.299Z,1013.11
2019-05-23T04:09:27.469Z,1013.1
2019-05-23T04:10:19.818Z,1013.1
2019-05-23T04:11:12.210Z,1013.1
2019-05-23T04:11:38.382Z,1013.08
2019-05-23T04:12:30.719Z,1013.07
2019-05-23T04:13:49.153Z,1013.06
2019-05-23T04:14:41.523Z,1013.03
2019-05-23T04:15:07.690Z,1013.03
2019-05-23T04:16:00.006Z,1013.04
2019-05-23T04:16:52.300Z,1013.02
2019-05-23T04:17:18.440Z,1013.02
2019-05-23T04:18:10.802Z,1013.05
2019-05-23T04:19:29.374Z,1013
2019-05-23T04:20:21.655Z,1012.98
2019-05-23T04:20:47.818Z,1013.06
2019-05-23T04:21:40.133Z,1013.02
2019-05-23T04:22:32.467Z,1013.03
2019-05-23T04:22:58.707Z,1013.01
2019-05-23T04:23:51.052Z,1013.01
2019-05-23T04:25:09.598Z,1013.02
2019-05-23T04:26:01.913Z,1012.98
2019-05-23T04:26:28.085Z,1013.01
2019-05-23T04:27:20.365Z,1012.99
2019-05-23T04:28:38.814Z,1013
2019-05-23T04:29:31.131Z,1012.98
2019-05-23T04:29:57.323Z,1013
2019-05-23T04:30:49.614Z,1013.01
2019-05-23T04:32:11.037Z,1012.95
2019-05-23T04:33:29.492Z,1012.94
2019-05-23T04:34:21.869Z,1012.97
2019-05-23T04:34:48.034Z,1012.94
2019-05-23T04:35:40.322Z,1012.98
2019-05-23T04:36:58.859Z,1012.97
2019-05-23T04:37:51.205Z,1012.97
2019-05-23T04:38:17.348Z,1013
2019-05-23T04:39:09.662Z,1012.98
2019-05-23T04:40:01.984Z,1012.95
2019-05-23T04:40:28.136Z,1012.97
2019-05-23T04:41:20.472Z,1013.01
2019-05-23T04:42:39.008Z,1012.98
2019-05-23T04:43:31.326Z,1013.01
2019-05-23T04:43:57.569Z,1012.97
2019-05-23T04:44:50.884Z,1013
2019-05-23T04:46:09.377Z,1013.01
2019-05-23T04:47:01.765Z,1013.03
2019-05-23T04:47:27.895Z,1013.02
2019-05-23T04:48:20.215Z,1013.02
2019-05-23T04:49:38.717Z,1013.01
2019-05-23T04:50:31.068Z,1012.99
2019-05-23T04:51:49.488Z,1012.95
2019-05-23T04:52:41.925Z,1013
2019-05-23T04:53:08.017Z,1013.01
2019-05-23T04:54:00.340Z,1012.99
2019-05-23T04:55:18.790Z,1012.99
2019-05-23T04:56:11.111Z,1012.99
2019-05-23T04:56:37.243Z,1012.99
2019-05-23T04:57:29.565Z,1012.96
2019-05-23T04:58:49.042Z,1012.95
2019-05-23T04:59:41.395Z,1013.04
2019-05-23T05:00:07.576Z,1013.04
2019-05-23T05:00:59.893Z,1013.02
2019-05-23T05:01:52.206Z,1012.99
2019-05-23T05:02:25.888Z,1012.98
2019-05-23T05:03:11.674Z,1012.97
2019-05-23T05:03:37.872Z,1012.97
2019-05-23T05:04:30.183Z,1012.93
2019-05-23T05:05:48.619Z,1012.91
2019-05-23T05:06:40.963Z,1012.91
2019-05-23T05:07:59.499Z,1012.9
2019-05-23T05:08:51.894Z,1012.89
2019-05-23T05:09:18.119Z,1012.91
2019-05-23T05:10:10.650Z,1012.94
2019-05-23T05:11:30.513Z,1012.94
2019-05-23T05:12:49.348Z,1012.94
2019-05-23T05:13:41.645Z,1012.97
2019-05-23T05:14:07.811Z,1012.93
2019-05-23T05:15:00.139Z,1012.98
2019-05-23T05:15:52.448Z,1012.98
2019-05-23T05:16:18.582Z,1013.01
2019-05-23T05:17:10.891Z,1012.98
2019-05-23T05:18:29.372Z,1013.02
2019-05-23T05:19:21.678Z,1013
2019-05-23T05:19:48.013Z,1013
2019-05-23T05:20:40.357Z,1012.99
2019-05-23T05:21:58.935Z,1013.03
2019-05-23T05:22:51.263Z,1013.03
2019-05-23T05:23:17.395Z,1013.05
2019-05-23T05:24:09.753Z,1013.05
2019-05-23T05:25:02.139Z,1013.08
2019-05-23T05:25:28.270Z,1013.06
2019-05-23T05:26:20.559Z,1013.03
2019-05-23T05:27:39.009Z,1013.08
2019-05-23T05:28:31.360Z,1013.05
2019-05-23T05:28:57.486Z,1013.01
2019-05-23T05:29:49.809Z,1013.01
2019-05-23T05:30:42.094Z,1013.04
2019-05-23T05:31:08.246Z,1013.07
2019-05-23T05:32:03.521Z,1013.02
2019-05-23T05:33:21.087Z,1013.06
2019-05-23T05:34:39.572Z,1013.07
2019-05-23T05:35:31.990Z,1013.09
2019-05-23T05:35:58.150Z,1013.09
2019-05-23T05:36:50.503Z,1013.1
2019-05-23T05:38:08.991Z,1013.09
2019-05-23T05:39:01.349Z,1013.14
2019-05-23T05:39:27.548Z,1013.1
2019-05-23T05:40:19.871Z,1013.12
2019-05-23T05:41:12.203Z,1013.1
2019-05-23T05:41:38.363Z,1013.13
2019-05-23T05:42:30.720Z,1013.11
2019-05-23T05:43:49.214Z,1013.13
2019-05-23T05:45:08.677Z,1013.13
2019-05-23T05:46:01.025Z,1013.11
2019-05-23T05:47:19.554Z,1013.15
2019-05-23T05:48:11.908Z,1013.11
2019-05-23T05:48:38.099Z,1013.16
2019-05-23T05:49:30.490Z,1013.12
2019-05-23T05:50:49.196Z,1013.16
2019-05-23T05:51:41.574Z,1013.16
2019-05-23T05:52:07.747Z,1013.16
2019-05-23T05:53:00.091Z,1013.18
2019-05-23T05:53:52.406Z,1013.18
2019-05-23T05:54:18.616Z,1013.17
2019-05-23T05:55:11.579Z,1013.17
2019-05-23T05:55:37.720Z,1013.19
2019-05-23T05:56:30.052Z,1013.18
2019-05-23T05:57:22.394Z,1013.23
2019-05-23T05:57:48.602Z,1013.21
2019-05-23T05:58:40.960Z,1013.23
2019-05-23T05:59:59.449Z,1013.24
2019-05-23T06:00:51.825Z,1013.22
2019-05-23T06:01:32.650Z,1013.25
2019-05-23T06:02:12.307Z,1013.29
2019-05-23T06:02:38.523Z,1013.25
2019-05-23T06:03:30.867Z,1013.19
2019-05-23T06:04:49.448Z,1013.23
2019-05-23T06:05:41.763Z,1013.23
2019-05-23T06:06:07.968Z,1013.23
2019-05-23T06:07:00.740Z,1013.25
2019-05-23T06:08:19.489Z,1013.24
2019-05-23T06:09:11.815Z,1013.26
2019-05-23T06:09:37.946Z,1013.28
2019-05-23T06:10:30.266Z,1013.27
2019-05-23T06:11:48.762Z,1013.23
2019-05-23T06:12:41.513Z,1013.21
2019-05-23T06:13:07.737Z,1013.23
2019-05-23T06:14:00.171Z,1013.23
2019-05-23T06:15:19.020Z,1013.26
2019-05-23T06:16:11.361Z,1013.27
2019-05-23T06:16:37.495Z,1013.29
2019-05-23T06:17:29.962Z,1013.28
2019-05-23T06:18:22.255Z,1013.32
2019-05-23T06:18:48.442Z,1013.26
2019-05-23T06:19:40.767Z,1013.29
2019-05-23T06:20:59.409Z,1013.3
2019-05-23T06:21:51.865Z,1013.27
2019-05-23T06:22:18.193Z,1013.31
2019-05-23T06:23:10.508Z,1013.31
2019-05-23T06:24:43.801Z,1013.31
2019-05-23T06:25:49.025Z,1013.34
2019-05-23T06:26:41.314Z,1013.32
2019-05-23T06:27:07.477Z,1013.33
2019-05-23T06:27:59.814Z,1013.37
2019-05-23T06:28:52.106Z,1013.34
2019-05-23T06:29:18.517Z,1013.34
2019-05-23T06:30:10.698Z,1013.3
2019-05-23T06:31:29.537Z,1013.34
2019-05-23T06:32:21.916Z,1013.32
2019-05-23T06:32:48.091Z,1013.33
2019-05-23T06:33:41.368Z,1013.31
2019-05-23T06:34:07.500Z,1013.36
2019-05-23T06:34:59.861Z,1013.29
2019-05-23T06:35:52.152Z,1013.32
2019-05-23T06:36:18.355Z,1013.31
2019-05-23T06:37:10.705Z,1013.31
2019-05-23T06:37:37.852Z,1013.3
2019-05-23T06:38:30.246Z,1013.34
2019-05-23T06:39:48.813Z,1013.29
2019-05-23T06:40:41.157Z,1013.29
2019-05-23T06:41:07.311Z,1013.28
2019-05-23T06:41:59.698Z,1013.3
2019-05-23T06:42:52.016Z,1013.24
2019-05-23T06:43:18.158Z,1013.26
2019-05-23T06:44:10.508Z,1013.27
2019-05-23T06:45:29.047Z,1013.28
2019-05-23T06:46:21.363Z,1013.22
2019-05-23T06:46:47.512Z,1013.24
2019-05-23T06:47:39.891Z,1013.26
2019-05-23T06:48:32.190Z,1013.24
2019-05-23T06:48:58.336Z,1013.27
2019-05-23T06:49:50.627Z,1013.26
2019-05-23T06:51:09.198Z,1013.19
2019-05-23T06:52:01.511Z,1013.22
2019-05-23T06:52:27.653Z,1013.24
2019-05-23T06:53:20.249Z,1013.27
2019-05-23T06:54:38.727Z,1013.3
2019-05-23T06:55:31.119Z,1013.27
2019-05-23T06:55:57.317Z,1013.3
2019-05-23T06:56:49.605Z,1013.4
2019-05-23T06:57:41.942Z,1013.35
2019-05-23T06:58:08.068Z,1013.34
2019-05-23T06:59:00.474Z,1013.31
2019-05-23T07:00:19.173Z,1013.34
2019-05-23T07:01:11.507Z,1013.35
2019-05-23T07:01:37.672Z,1013.4
2019-05-23T07:02:31.994Z,1013.37
2019-05-23T07:03:38.462Z,1013.33
2019-05-23T07:03:49.567Z,1013.35
2019-05-23T07:04:41.889Z,1013.37
2019-05-23T07:05:08.036Z,1013.32
2019-05-23T07:06:00.386Z,1013.37
2019-05-23T07:07:18.931Z,1013.38
2019-05-23T07:08:11.367Z,1013.35
2019-05-23T07:08:38.551Z,1013.33
2019-05-23T07:09:30.867Z,1013.37
2019-05-23T07:10:49.405Z,1013.32
2019-05-23T07:11:41.783Z,1013.29
2019-05-23T07:12:07.924Z,1013.34
2019-05-23T07:13:00.252Z,1013.34
2019-05-23T07:14:18.753Z,1013.29
2019-05-23T07:15:11.121Z,1013.32
2019-05-23T07:15:37.274Z,1013.33
2019-05-23T07:16:29.625Z,1013.31
2019-05-23T07:17:22.002Z,1013.31
2019-05-23T07:17:48.170Z,1013.29
2019-05-23T07:18:40.480Z,1013.3
2019-05-23T07:19:58.967Z,1013.3
2019-05-23T07:20:51.402Z,1013.28
2019-05-23T07:21:17.621Z,1013.28
2019-05-23T07:22:09.993Z,1013.24
2019-05-23T07:23:02.358Z,1013.24
2019-05-23T07:23:28.521Z,1013.25
2019-05-23T07:24:20.881Z,1013.28
2019-05-23T07:24:57.269Z,1013.26
2019-05-23T07:25:41.366Z,1013.29
2019-05-23T07:26:07.539Z,1013.33
2019-05-23T07:26:59.948Z,1013.38
2019-05-23T07:27:52.385Z,1013.29
2019-05-23T07:28:18.583Z,1013.31
2019-05-23T07:29:11.004Z,1013.33
2019-05-23T07:30:29.453Z,1013.36
2019-05-23T07:31:21.791Z,1013.34
2019-05-23T07:31:47.950Z,1013.37
2019-05-23T07:32:40.312Z,1013.35
2019-05-23T07:34:02.094Z,1013.34
2019-05-23T07:34:52.331Z,1013.34
2019-05-23T07:35:18.479Z,1013.31
2019-05-23T07:36:10.822Z,1013.3
2019-05-23T07:37:29.379Z,1013.34
2019-05-23T07:38:21.718Z,1013.33
2019-05-23T07:38:47.888Z,1013.3
2019-05-23T07:39:40.254Z,1013.35
2019-05-23T07:40:58.793Z,1013.38
2019-05-23T07:41:51.285Z,1013.34
2019-05-23T07:42:19.293Z,1013.32
2019-05-23T07:43:40.289Z,1013.35
2019-05-23T07:45:00.313Z,1013.33
2019-05-23T07:46:19.174Z,1013.34
2019-05-23T07:47:11.549Z,1013.31
2019-05-23T07:47:39.995Z,1013.3
2019-05-23T07:48:31.003Z,1013.32
2019-05-23T07:49:49.531Z,1013.34
2019-05-23T07:50:41.796Z,1013.34
2019-05-23T07:51:07.970Z,1013.35
2019-05-23T07:52:01.237Z,1013.35
2019-05-23T07:52:27.374Z,1013.36
2019-05-23T07:53:19.681Z,1013.39
2019-05-23T07:54:39.279Z,1013.39
2019-05-23T07:55:31.566Z,1013.38
2019-05-23T07:55:57.745Z,1013.38
2019-05-23T07:56:50.073Z,1013.42
2019-05-23T07:57:42.426Z,1013.42
2019-05-23T07:58:08.885Z,1013.39
2019-05-23T07:59:01.312Z,1013.35
2019-05-23T07:59:27.573Z,1013.39
2019-05-23T08:00:19.918Z,1013.39
2019-05-23T08:01:12.269Z,1013.37
2019-05-23T08:01:38.430Z,1013.38
2019-05-23T08:02:31.770Z,1013.37
2019-05-23T08:02:57.947Z,1013.36
2019-05-23T08:03:50.265Z,1013.37
2019-05-23T08:04:21.610Z,1013.34
2019-05-23T08:05:10.734Z,1013.36
2019-05-23T08:06:29.205Z,1013.38
2019-05-23T08:07:21.549Z,1013.38
2019-05-23T08:07:47.956Z,1013.34
2019-05-23T08:08:40.308Z,1013.35
2019-05-23T08:09:58.805Z,1013.31
2019-05-23T08:10:52.144Z,1013.33
2019-05-23T08:11:18.327Z,1013.34
2019-05-23T08:12:10.715Z,1013.33
2019-05-23T08:13:29.353Z,1013.31
2019-05-23T08:14:21.692Z,1013.37
2019-05-23T08:14:47.841Z,1013.37
2019-05-23T08:15:40.136Z,1013.34
2019-05-23T08:16:58.647Z,1013.31
2019-05-23T08:17:50.982Z,1013.31
2019-05-23T08:19:09.850Z,1013.35
2019-05-23T08:20:29.499Z,1013.34
2019-05-23T08:21:22.638Z,1013.34
2019-05-23T08:21:48.895Z,1013.37
2019-05-23T08:22:41.507Z,1013.37
2019-05-23T08:23:08.161Z,1013.33
2019-05-23T08:24:00.626Z,1013.35
2019-05-23T08:25:19.360Z,1013.32
2019-05-23T08:26:12.033Z,1013.3
2019-05-23T08:26:38.390Z,1013.29
2019-05-23T08:27:30.861Z,1013.31
2019-05-23T08:29:11.922Z,1013.26
2019-05-23T08:29:26.554Z,1013.31
2019-05-23T08:30:12.200Z,1013.34
2019-05-23T08:30:38.685Z,1013.33
2019-05-23T08:31:31.158Z,1013.3
2019-05-23T08:31:57.331Z,1013.29
2019-05-23T08:32:49.633Z,1013.27
2019-05-23T08:33:41.966Z,1013.3
2019-05-23T08:34:08.139Z,1013.28
2019-05-23T08:35:02.452Z,1013.28
2019-05-23T08:35:28.645Z,1013.28
2019-05-23T08:36:20.963Z,1013.32
2019-05-23T08:37:39.458Z,1013.28
2019-05-23T08:38:31.795Z,1013.29
2019-05-23T08:38:57.975Z,1013.33
2019-05-23T08:39:50.318Z,1013.33
2019-05-23T08:41:08.788Z,1013.36
2019-05-23T08:42:01.155Z,1013.37
2019-05-23T08:42:27.349Z,1013.36
2019-05-23T08:43:19.773Z,1013.31
2019-05-23T08:44:12.038Z,1013.29
2019-05-23T08:44:38.234Z,1013.28
2019-05-23T08:45:30.561Z,1013.28
2019-05-23T08:46:49.281Z,1013.29
2019-05-23T08:47:41.602Z,1013.29
2019-05-23T08:48:07.774Z,1013.3
2019-05-23T08:49:00.140Z,1013.29
2019-05-23T08:50:18.640Z,1013.28
2019-05-23T08:51:10.965Z,1013.3
2019-05-23T08:52:30.210Z,1013.37
2019-05-23T08:53:48.734Z,1013.28
2019-05-23T08:54:41.152Z,1013.3
2019-05-23T08:55:07.393Z,1013.3
2019-05-23T08:55:59.779Z,1013.24
2019-05-23T08:56:52.190Z,1013.25
2019-05-23T08:57:18.368Z,1013.28
2019-05-23T08:58:10.762Z,1013.24
2019-05-23T08:59:29.889Z,1013.31
2019-05-23T08:59:57.855Z,1013.29
2019-05-23T09:01:20.727Z,1013.33
2019-05-23T09:02:39.228Z,1013.32
2019-05-23T09:03:31.604Z,1013.31
2019-05-23T09:03:57.755Z,1013.29
2019-05-23T09:05:03.049Z,1013.31
2019-05-23T09:05:17.354Z,1013.3
2019-05-23T09:06:09.702Z,1013.3
2019-05-23T09:07:02.160Z,1013.26
2019-05-23T09:07:28.327Z,1013.3
2019-05-23T09:08:20.637Z,1013.26
2019-05-23T09:09:40.166Z,1013.34
2019-05-23T09:10:58.676Z,1013.34
2019-05-23T09:11:51.011Z,1013.36
2019-05-23T09:13:09.528Z,1013.33
2019-05-23T09:14:01.882Z,1013.35
2019-05-23T09:14:28.064Z,1013.32
2019-05-23T09:15:20.448Z,1013.33
2019-05-23T09:16:38.986Z,1013.33
2019-05-23T09:17:31.349Z,1013.3
2019-05-23T09:17:58.503Z,1013.29
2019-05-23T09:18:50.838Z,1013.23
2019-05-23T09:20:09.367Z,1013.29
2019-05-23T09:21:01.810Z,1013.31
2019-05-23T09:21:27.917Z,1013.34
2019-05-23T09:22:20.309Z,1013.3
2019-05-23T09:23:38.853Z,1013.35
2019-05-23T09:24:31.230Z,1013.32
2019-05-23T09:24:57.407Z,1013.27
2019-05-23T09:25:50.454Z,1013.25
2019-05-23T09:27:08.758Z,1013.26
2019-05-23T09:28:01.098Z,1013.29
2019-05-23T09:28:27.239Z,1013.3
2019-05-23T09:29:19.604Z,1013.28
2019-05-23T09:30:12.037Z,1013.31
2019-05-23T09:30:38.309Z,1013.32
2019-05-23T09:31:30.638Z,1013.33
2019-05-23T09:32:49.191Z,1013.29
2019-05-23T09:33:41.531Z,1013.28
2019-05-23T09:34:07.678Z,1013.3
2019-05-23T09:35:00.053Z,1013.33
2019-05-23T09:36:19.608Z,1013.36
2019-05-23T09:37:12.000Z,1013.39
2019-05-23T09:37:38.183Z,1013.39
2019-05-23T09:38:30.597Z,1013.3
2019-05-23T09:39:49.106Z,1013.31
2019-05-23T09:40:41.459Z,1013.3
2019-05-23T09:41:07.659Z,1013.34
2019-05-23T09:42:00.647Z,1013.27
2019-05-23T09:43:19.251Z,1013.28
2019-05-23T09:44:11.554Z,1013.27
2019-05-23T09:44:37.733Z,1013.27
2019-05-23T09:45:30.043Z,1013.24
2019-05-23T09:46:22.352Z,1013.28
2019-05-23T09:46:48.498Z,1013.25
2019-05-23T09:47:40.904Z,1013.34
2019-05-23T09:48:59.519Z,1013.36
2019-05-23T09:49:55.012Z,1013.32
2019-05-23T09:50:19.091Z,1013.38
2019-05-23T09:51:11.448Z,1013.37
2019-05-23T09:51:37.597Z,1013.38
2019-05-23T09:52:30.947Z,1013.33
2019-05-23T09:53:49.472Z,1013.29
2019-05-23T09:54:41.820Z,1013.34
2019-05-23T09:55:08.010Z,1013.32
2019-05-23T09:56:00.376Z,1013.34
2019-05-23T09:57:18.912Z,1013.36
2019-05-23T09:58:11.405Z,1013.33
2019-05-23T09:58:37.532Z,1013.33
2019-05-23T09:59:29.872Z,1013.3
2019-05-23T10:00:22.181Z,1013.35
2019-05-23T10:00:48.360Z,1013.29
2019-05-23T10:01:40.797Z,1013.27
2019-05-23T10:02:59.349Z,1013.28
2019-05-23T10:03:51.691Z,1013.32
2019-05-23T10:04:17.869Z,1013.32
2019-05-23T10:05:10.303Z,1013.31
2019-05-23T10:05:44.625Z,1013.3
2019-05-23T10:06:30.852Z,1013.33
2019-05-23T10:07:49.422Z,1013.27
2019-05-23T10:08:41.755Z,1013.32
2019-05-23T10:09:07.939Z,1013.38